Aeroporto :
LOGIN :

Iscrizione | Disclaimer

   EN    FR    IT 

 










Sommario :    VFR   VFR Marginale   IFR   IFR Intensivo   IFR Molto Intensivo
Visibilità : 
Base nubi : 
>= 8 km
>= 3000ft
5 / 8 km
1000 / 3000 ft
1500m / 5 km
500 / 1000 ft
800 / 1500m
200 / 500 ft
< 800m
< 200 ft
Simboli :   Temporali  Nebbia  Neve Forte  Precipitazioni Forti  Vento > 20 kt
SIGMETs :   Varie  Temporali  Ghiacco  Turbolenza  Onda orograficha  Ceneri Vulcaniche






- Altitudine del aeroporto : 245 ft
- Codice IATA : BIQ


LFBZ - Biarritz

ULTIMO METAR :
  • 261500Z AUTO 33004KT 300V010 CAVOK 14/07 Q1021 NOSIG

METARs OBSOLETI :
  • 261430Z AUTO 30006KT 270V340 CAVOK 14/06 Q1020 NOSIG
  • 261400Z AUTO 30005KT 260V330 CAVOK 14/08 Q1021 NOSIG
  • 261330Z AUTO 28004KT 220V360 CAVOK 14/08 Q1021 NOSIG
  • 261300Z AUTO 29004KT 250V320 CAVOK 14/08 Q1021 NOSIG
  • 261230Z AUTO 28007KT CAVOK 14/08 Q1021 NOSIG

TAF TAF LFBZ
Valido dal 26 a 12 ore il 27 a 12 ore UTC


261100Z 2612/2712 24005KT CAVOK



MetMap, La meteo Aeronautica in un colpo d'occhio ! - Copyright ORBIFLY Dicembre 2007 - Disclaimer

ORBIFLY MET'MAP TEAM :

Programmazione e sviluppo : Alexandra Zaïnal
Concezione : Baudouin d'Aumeries
Aiuto per la programmazione : Marc-Olivier Méhu
Supporto tecnico e logistico : Manuel Goepfert
Aiuto per la traduzione : Arnaldo La Scala

Contatto : metmap@orbifly.com




FONTI E CREDITI :

   NOAA